Airfield :
LOGIN :

Register | Disclaimer

   EN    FR    IT 

 










Legend :    VFR   Marginal VFR   IFR   Intensive IFR   Very Intensive IFR
Visi :
Ceiling :
>= 8 km
>= 3000ft
5 to 8 km
1000 to 3000 ft
1500m to 5 km
500 to 1000 ft
800 to 1500m
200 to 500 ft
< 800m
< 200 ft
Symbols :   Thunderstorms  Fog  Heavy snow  Heavy precipitations  Wind > 20 kt
SIGMETs :     Misc.  Thunderstorms  Icing  Turbulence  Mountain Waves  Volcanic Ashes






- Airport Elevation : 122 ft
- IATA code : TXL


EDDT - Berlin Tegel Int.

CURRENT METAR :
  • 211250Z 08005KT 040V120 6000 BKN011 BKN018 10/08 Q1010 NOSIG

EXPIRED METARs :
  • 211220Z 10006KT 060V130 5000 BR FEW009 BKN012 10/08 Q1010 NOSIG
  • 211150Z 09005KT 060V140 5000 BR FEW007 BKN010 10/08 Q1011 NOSIG
  • 211120Z 11005KT 070V130 4800 BR BKN007 10/08 Q1011 TEMPO 5000
  • 211050Z 08006KT 060V120 4800 BR BKN006 09/08 Q1011 TEMPO 5000
  • 211020Z 09006KT 040V120 4800 BR BKN005 09/08 Q1012 TEMPO 5000

TAF COR TAF EDDT
Valid from the 21 at 12:00 until the 22 at 12:00 UTC


211149Z 2112/2212 11005KT 6000 BKN012
TEMPO 2112/2117 2000 -DZRA BKN004
BECMG 2117/2119 2000 -DZ BR BKN004
PROB40
TEMPO 2121/2202 1200 -DZRA BCFG BKN001
BECMG 2203/2206 3500 BR
BECMG 2206/2210 6000 BKN007



MET'MAP, your aeronautical weather chart ! - Copyright ORBIFLY December 2007 - Disclaimer

ORBIFLY MET'MAP TEAM :

Programming & Development : Alexandra Zaïnal
Concept & Development : Baudouin d'Aumeries
Co-Development & Prog : Marc-Olivier Méhu
Technical & hardware support : Manuel Goepfert

Contact : metmap@orbifly.com




SOURCES & CREDITS :

   NOAA